Time;durP1;ratioP1;P1;durP2;ratioP2;P2;SDS_P1;SDS_P2;PMS_P1;PMS_P2;Temp;Humidity;BMP_temperature;BMP_pressure;BME280_temperature;BME280_humidity;BME280_pressure;Samples;Min_cycle;Max_cycle;Signal;HPM_P1;HPM_P2
2022/02/22 00:01:35;;;;;;;;;;;22.10;45.20;;;;;;5156456;27;19983;-44
2022/02/22 00:04:03;;;;;;;;;;;22.10;45.20;;;;;;5157080;27;19962;-44
2022/02/22 00:06:30;;;;;;;;;;;22.10;45.20;;;;;;5157449;27;19923;-45
2022/02/22 00:08:57;;;;;;;;;;;22.10;45.20;;;;;;5157904;27;19923;-45
2022/02/22 00:11:24;;;;;;;;;;;22.10;45.20;;;;;;5157341;27;19968;-48
2022/02/22 00:13:52;;;;;;;;;;;22.10;45.20;;;;;;5156520;27;19923;-45
2022/02/22 00:16:19;;;;;;;;;;;22.10;45.20;;;;;;5155808;27;19923;-47
2022/02/22 00:18:46;;;;;;;;;;;22.10;45.20;;;;;;5156879;27;19976;-45
2022/02/22 00:21:13;;;;;;;;;;;22.10;45.20;;;;;;5156716;27;20369;-45
2022/02/22 00:23:41;;;;;;;;;;;22.10;45.20;;;;;;5156811;27;20011;-44
2022/02/22 00:26:08;;;;;;;;;;;22.10;45.20;;;;;;5138238;27;19978;-44
2022/02/22 00:28:35;;;;;;;;;;;22.10;45.20;;;;;;5155951;27;19924;-45
2022/02/22 00:31:02;;;;;;;;;;;22.10;45.20;;;;;;5155404;27;19979;-44
2022/02/22 00:33:29;;;;;;;;;;;22.10;45.20;;;;;;5156576;27;20010;-51
2022/02/22 00:35:56;;;;;;;;;;;22.10;45.20;;;;;;5156843;27;19958;-44
2022/02/22 00:38:23;;;;;;;;;;;22.10;45.20;;;;;;5156501;27;19923;-47
2022/02/22 00:40:50;;;;;;;;;;;22.10;45.20;;;;;;5156774;27;20331;-44
2022/02/22 00:43:18;;;;;;;;;;;22.10;45.20;;;;;;5156352;27;19929;-47
2022/02/22 00:45:44;;;;;;;;;;;22.10;45.20;;;;;;5154650;27;20324;-46
2022/02/22 00:48:12;;;;;;;;;;;22.10;45.20;;;;;;5156593;27;20267;-46
2022/02/22 00:50:39;;;;;;;;;;;22.10;45.20;;;;;;5156249;27;20348;-44
2022/02/22 00:53:06;;;;;;;;;;;22.10;45.20;;;;;;5156027;27;19923;-47
2022/02/22 00:55:34;;;;;;;;;;;22.10;45.20;;;;;;5156307;27;19924;-45
2022/02/22 00:58:01;;;;;;;;;;;22.10;45.20;;;;;;5156380;27;19934;-46
2022/02/22 01:00:28;;;;;;;;;;;22.10;45.20;;;;;;5154326;27;19927;-45
2022/02/22 01:02:55;;;;;;;;;;;22.10;45.20;;;;;;5155770;27;20327;-44
2022/02/22 01:05:22;;;;;;;;;;;22.10;45.20;;;;;;5156200;27;19927;-48
2022/02/22 01:07:49;;;;;;;;;;;22.10;45.20;;;;;;5156227;27;19991;-47
2022/02/22 01:10:16;;;;;;;;;;;22.10;45.20;;;;;;5155864;27;20382;-46
2022/02/22 01:12:43;;;;;;;;;;;22.10;45.20;;;;;;5155786;27;20359;-45
2022/02/22 01:15:10;;;;;;;;;;;22.10;45.20;;;;;;5154821;27;19975;-44
2022/02/22 01:17:37;;;;;;;;;;;22.10;45.20;;;;;;5135171;27;20279;-44
2022/02/22 01:20:05;;;;;;;;;;;22.10;45.20;;;;;;5116630;27;20420;-44
2022/02/22 01:22:32;;;;;;;;;;;22.10;45.20;;;;;;5134773;27;20299;-45
2022/02/22 01:25:01;;;;;;;;;;;22.10;45.20;;;;;;5135037;27;19923;-44
2022/02/22 01:27:28;;;;;;;;;;;22.10;45.20;;;;;;5135151;27;19930;-46
2022/02/22 01:29:55;;;;;;;;;;;22.10;45.20;;;;;;5141227;27;19962;-45
2022/02/22 01:32:22;;;;;;;;;;;22.10;45.20;;;;;;5154325;27;20283;-48
2022/02/22 01:34:49;;;;;;;;;;;22.00;45.10;;;;;;5156359;27;19923;-46
2022/02/22 01:37:16;;;;;;;;;;;22.00;45.10;;;;;;5155410;27;19978;-45
2022/02/22 01:39:44;;;;;;;;;;;22.10;45.20;;;;;;5155679;27;19923;-45
2022/02/22 01:42:11;;;;;;;;;;;22.10;45.20;;;;;;5156262;27;19987;-47
2022/02/22 01:44:38;;;;;;;;;;;22.00;45.10;;;;;;5136498;27;20324;-44
2022/02/22 01:47:07;;;;;;;;;;;22.00;45.10;;;;;;5154513;27;20349;-45
2022/02/22 01:49:35;;;;;;;;;;;22.00;45.10;;;;;;5136999;27;20393;-47
2022/02/22 01:52:03;;;;;;;;;;;22.10;45.20;;;;;;5155900;27;19953;-45
2022/02/22 01:54:30;;;;;;;;;;;22.00;45.10;;;;;;5155409;27;19958;-46
2022/02/22 01:56:57;;;;;;;;;;;22.00;45.10;;;;;;5155538;27;19927;-45
2022/02/22 01:59:24;;;;;;;;;;;22.00;45.10;;;;;;5154957;27;20013;-46
2022/02/22 02:01:51;;;;;;;;;;;22.00;45.10;;;;;;5154061;27;19927;-44
2022/02/22 02:04:19;;;;;;;;;;;22.00;45.10;;;;;;5155457;27;19949;-44
2022/02/22 02:06:46;;;;;;;;;;;22.00;45.10;;;;;;5136676;27;20412;-45
2022/02/22 02:09:13;;;;;;;;;;;22.00;45.10;;;;;;5155408;27;20294;-43
2022/02/22 02:11:41;;;;;;;;;;;22.00;45.10;;;;;;5155045;27;20377;-46
2022/02/22 02:14:08;;;;;;;;;;;22.00;45.10;;;;;;5155064;27;20010;-47
2022/02/22 02:16:35;;;;;;;;;;;22.00;45.10;;;;;;5156891;27;19923;-46
2022/02/22 02:19:03;;;;;;;;;;;22.00;45.10;;;;;;5159242;27;19927;-47
2022/02/22 02:21:30;;;;;;;;;;;22.00;45.20;;;;;;5159766;27;20335;-47
2022/02/22 02:24:13;;;;;;;;;;;22.00;45.20;;;;;;5159480;27;19923;-48
2022/02/22 02:26:40;;;;;;;;;;;22.00;45.10;;;;;;5159400;27;19931;-47
2022/02/22 02:29:08;;;;;;;;;;;22.00;45.20;;;;;;5159098;27;19924;-47
2022/02/22 02:31:39;;;;;;;;;;;22.00;45.10;;;;;;5157133;27;19930;-45
2022/02/22 02:34:06;;;;;;;;;;;22.00;45.20;;;;;;5159314;27;19923;-46
2022/02/22 02:36:35;;;;;;;;;;;22.00;45.20;;;;;;5158949;27;19923;-46
2022/02/22 02:39:03;;;;;;;;;;;22.00;45.20;;;;;;5158848;27;20453;-45
2022/02/22 02:41:30;;;;;;;;;;;22.00;45.20;;;;;;5158827;27;20374;-46
2022/02/22 02:44:01;;;;;;;;;;;22.00;45.20;;;;;;5158789;27;19974;-49
2022/02/22 02:46:29;;;;;;;;;;;22.00;45.20;;;;;;5157203;27;19926;-45
2022/02/22 02:48:56;;;;;;;;;;;22.00;45.20;;;;;;5158681;27;20014;-45
2022/02/22 02:51:24;;;;;;;;;;;22.00;45.20;;;;;;5158428;27;19969;-46
2022/02/22 02:53:52;;;;;;;;;;;22.00;45.20;;;;;;5158579;27;19923;-46
2022/02/22 02:56:25;;;;;;;;;;;22.00;45.20;;;;;;5158409;27;19923;-47
2022/02/22 02:58:52;;;;;;;;;;;22.00;45.20;;;;;;5158488;27;20030;-50
2022/02/22 03:01:20;;;;;;;;;;;22.00;45.20;;;;;;5156825;27;19923;-50
2022/02/22 03:03:47;;;;;;;;;;;22.00;45.20;;;;;;5158310;27;20021;-47
2022/02/22 03:06:14;;;;;;;;;;;22.00;45.20;;;;;;5158583;27;19954;-48
2022/02/22 03:08:41;;;;;;;;;;;22.00;45.20;;;;;;5158662;27;20294;-45
2022/02/22 03:11:08;;;;;;;;;;;22.00;45.20;;;;;;5158243;27;20022;-50
2022/02/22 03:13:38;;;;;;;;;;;22.00;45.20;;;;;;5158508;27;19952;-44
2022/02/22 03:16:05;;;;;;;;;;;22.00;45.20;;;;;;5157394;27;19976;-46
2022/02/22 03:18:32;;;;;;;;;;;22.00;45.20;;;;;;5134751;27;20018;-44
2022/02/22 03:20:59;;;;;;;;;;;22.00;45.20;;;;;;5137662;27;19923;-45
2022/02/22 03:23:26;;;;;;;;;;;22.00;45.20;;;;;;5137300;27;19945;-47
2022/02/22 03:25:53;;;;;;;;;;;22.00;45.20;;;;;;5136956;27;20371;-47
2022/02/22 03:28:20;;;;;;;;;;;22.00;45.20;;;;;;5137499;27;19967;-47
2022/02/22 03:30:48;;;;;;;;;;;22.00;45.20;;;;;;5136429;27;19927;-44
2022/02/22 03:33:15;;;;;;;;;;;22.00;45.20;;;;;;5135922;27;19923;-45
2022/02/22 03:35:43;;;;;;;;;;;22.00;45.20;;;;;;5137379;27;19924;-46
2022/02/22 03:38:10;;;;;;;;;;;21.90;45.20;;;;;;5135846;27;20422;-48
2022/02/22 03:40:37;;;;;;;;;;;22.00;45.20;;;;;;5136977;27;19966;-45
2022/02/22 03:43:05;;;;;;;;;;;22.00;45.20;;;;;;5137187;27;19923;-45
2022/02/22 03:45:33;;;;;;;;;;;22.00;45.20;;;;;;5137086;27;20019;-46
2022/02/22 03:48:00;;;;;;;;;;;22.00;45.20;;;;;;5135190;27;20387;-48
2022/02/22 03:50:27;;;;;;;;;;;22.00;45.20;;;;;;5136730;27;20443;-48
2022/02/22 03:52:54;;;;;;;;;;;21.90;45.10;;;;;;5136852;27;19966;-46
2022/02/22 03:55:22;;;;;;;;;;;22.00;45.20;;;;;;5136555;27;19985;-45
2022/02/22 03:57:49;;;;;;;;;;;21.90;45.10;;;;;;5136937;27;20019;-47
2022/02/22 04:00:20;;;;;;;;;;;22.00;45.80;;;;;;5136548;27;19923;-46
2022/02/22 04:02:47;;;;;;;;;;;22.00;45.20;;;;;;5134672;27;19996;-45
2022/02/22 04:05:15;;;;;;;;;;;21.90;45.10;;;;;;5136749;27;19924;-43
2022/02/22 04:07:44;;;;;;;;;;;22.00;45.20;;;;;;5136728;27;19924;-45
2022/02/22 04:10:12;;;;;;;;;;;21.90;45.20;;;;;;5136380;27;19975;-44
2022/02/22 04:12:39;;;;;;;;;;;21.90;45.10;;;;;;5136691;27;19992;-45
2022/02/22 04:15:08;;;;;;;;;;;21.90;45.20;;;;;;5136624;27;20007;-44
2022/02/22 04:17:35;;;;;;;;;;;21.90;45.20;;;;;;5133470;27;20018;-44
2022/02/22 04:20:04;;;;;;;;;;;21.90;45.10;;;;;;5153100;27;20017;-43
2022/02/22 04:22:31;;;;;;;;;;;21.90;45.10;;;;;;5156945;27;19927;-45
2022/02/22 04:24:58;;;;;;;;;;;21.90;45.20;;;;;;5156638;27;19931;-46
2022/02/22 04:27:25;;;;;;;;;;;21.90;45.20;;;;;;5138612;27;19927;-45
2022/02/22 04:29:52;;;;;;;;;;;21.90;45.20;;;;;;5156988;27;19986;-46
2022/02/22 04:32:19;;;;;;;;;;;21.90;45.20;;;;;;5136397;27;19923;-47
2022/02/22 04:34:46;;;;;;;;;;;21.90;45.10;;;;;;5138583;27;20029;-47
2022/02/22 04:37:15;;;;;;;;;;;21.90;45.10;;;;;;5138171;27;19927;-47
2022/02/22 04:39:44;;;;;;;;;;;21.90;45.10;;;;;;5156403;27;19931;-48
2022/02/22 04:42:11;;;;;;;;;;;21.90;45.10;;;;;;5156744;27;19970;-46
2022/02/22 04:44:39;;;;;;;;;;;21.90;45.20;;;;;;5156407;27;19953;-48
2022/02/22 04:47:06;;;;;;;;;;;21.90;45.20;;;;;;5155827;27;19923;-44
2022/02/22 04:49:33;;;;;;;;;;;21.90;45.10;;;;;;5155420;27;19980;-45
2022/02/22 04:52:01;;;;;;;;;;;21.90;45.20;;;;;;5156022;27;19973;-44
2022/02/22 04:54:28;;;;;;;;;;;21.90;45.10;;;;;;5156425;27;20343;-43
2022/02/22 04:56:56;;;;;;;;;;;21.90;45.10;;;;;;5156483;27;19923;-45
2022/02/22 04:59:24;;;;;;;;;;;21.90;45.10;;;;;;5156101;27;20022;-45
2022/02/22 05:01:52;;;;;;;;;;;21.90;45.10;;;;;;5155622;27;20426;-48
2022/02/22 05:04:19;;;;;;;;;;;21.90;45.20;;;;;;5154950;27;19981;-47
2022/02/22 05:06:46;;;;;;;;;;;21.90;45.20;;;;;;5156427;27;19984;-45
2022/02/22 05:09:12;;;;;;;;;;;21.90;45.20;;;;;;5156232;27;19927;-48
2022/02/22 05:11:39;;;;;;;;;;;21.90;45.20;;;;;;5156193;27;19927;-44
2022/02/22 05:14:06;;;;;;;;;;;21.90;45.20;;;;;;5137522;27;20390;-45
2022/02/22 05:16:39;;;;;;;;;;;21.90;45.20;;;;;;5155768;27;19970;-45
2022/02/22 05:19:07;;;;;;;;;;;21.90;45.20;;;;;;5154227;27;19923;-45
2022/02/22 05:21:34;;;;;;;;;;;21.90;45.20;;;;;;5155496;27;19970;-46
2022/02/22 05:24:04;;;;;;;;;;;21.90;45.20;;;;;;5155887;27;19966;-46
2022/02/22 05:26:32;;;;;;;;;;;21.90;45.20;;;;;;5155471;27;20021;-46
2022/02/22 05:28:59;;;;;;;;;;;21.90;45.10;;;;;;5155556;27;19981;-45
2022/02/22 05:31:26;;;;;;;;;;;21.90;45.10;;;;;;5155565;27;19929;-45
2022/02/22 05:33:53;;;;;;;;;;;21.90;45.10;;;;;;5135695;27;19960;-44
2022/02/22 05:36:21;;;;;;;;;;;21.90;45.10;;;;;;5155473;27;20010;-44
2022/02/22 05:38:48;;;;;;;;;;;21.90;45.20;;;;;;5155464;27;19930;-46
2022/02/22 05:41:17;;;;;;;;;;;21.90;45.10;;;;;;5155696;27;19945;-45
2022/02/22 05:43:46;;;;;;;;;;;21.90;45.10;;;;;;5155697;27;19923;-48
2022/02/22 05:46:13;;;;;;;;;;;21.90;45.20;;;;;;5155592;27;19927;-48
2022/02/22 05:48:41;;;;;;;;;;;21.90;45.10;;;;;;5153492;27;20424;-45
2022/02/22 05:51:08;;;;;;;;;;;21.90;45.20;;;;;;5154520;27;19966;-47
2022/02/22 05:53:36;;;;;;;;;;;21.90;45.20;;;;;;5137304;27;20379;-44
2022/02/22 05:56:03;;;;;;;;;;;21.90;45.10;;;;;;5155091;27;20022;-44
2022/02/22 05:58:30;;;;;;;;;;;21.90;45.20;;;;;;5155280;27;19974;-46
2022/02/22 06:00:57;;;;;;;;;;;21.90;45.10;;;;;;5155529;27;19969;-46
2022/02/22 06:03:24;;;;;;;;;;;21.90;45.10;;;;;;5153395;27;19935;-47
2022/02/22 06:05:51;;;;;;;;;;;21.90;45.10;;;;;;5155088;27;19923;-45
2022/02/22 06:08:18;;;;;;;;;;;21.90;45.10;;;;;;5155111;27;19923;-46
2022/02/22 06:10:47;;;;;;;;;;;21.90;45.20;;;;;;5155093;27;19923;-45
2022/02/22 06:13:15;;;;;;;;;;;21.90;45.10;;;;;;5145357;27;20339;-53
2022/02/22 06:15:42;;;;;;;;;;;21.90;45.10;;;;;;5130175;27;20424;-45
2022/02/22 06:18:09;;;;;;;;;;;21.90;45.10;;;;;;5123130;27;19923;-46
2022/02/22 06:20:36;;;;;;;;;;;21.90;45.20;;;;;;5133845;27;19928;-46
2022/02/22 06:23:03;;;;;;;;;;;21.90;45.20;;;;;;5133802;28;20275;-47
2022/02/22 06:25:30;;;;;;;;;;;21.90;45.20;;;;;;5133494;28;20339;-47
2022/02/22 06:27:57;;;;;;;;;;;21.90;45.20;;;;;;5134216;28;19927;-46
2022/02/22 06:30:25;;;;;;;;;;;21.90;45.30;;;;;;5133671;28;19969;-44
2022/02/22 06:32:54;;;;;;;;;;;21.90;45.90;;;;;;5133485;27;19995;-47
2022/02/22 06:35:23;;;;;;;;;;;21.90;45.30;;;;;;5149724;27;20301;-45
2022/02/22 06:37:50;;;;;;;;;;;21.90;45.30;;;;;;5154520;27;20058;-45
2022/02/22 06:40:17;;;;;;;;;;;21.90;45.30;;;;;;5155003;27;19927;-45
2022/02/22 06:42:51;;;;;;;;;;;21.90;45.30;;;;;;5154613;27;19923;-47
2022/02/22 06:45:18;;;;;;;;;;;21.90;45.40;;;;;;5154135;27;19923;-45
2022/02/22 06:47:45;;;;;;;;;;;21.90;45.40;;;;;;5153552;27;19923;-44
2022/02/22 06:50:12;;;;;;;;;;;21.90;45.40;;;;;;5153500;27;19975;-45
2022/02/22 06:52:40;;;;;;;;;;;21.90;45.40;;;;;;5135628;27;19923;-48
2022/02/22 06:55:11;;;;;;;;;;;21.90;45.40;;;;;;5154366;27;19927;-48
2022/02/22 06:57:39;;;;;;;;;;;21.90;45.40;;;;;;5154004;27;20355;-44
2022/02/22 07:00:09;;;;;;;;;;;21.90;45.30;;;;;;5153917;27;19923;-47
2022/02/22 07:02:37;;;;;;;;;;;21.90;45.30;;;;;;5157450;27;19962;-49
2022/02/22 07:05:05;;;;;;;;;;;21.90;45.30;;;;;;5156502;27;19980;-47
2022/02/22 07:07:33;;;;;;;;;;;21.90;45.30;;;;;;5156995;27;19923;-45
2022/02/22 07:10:00;;;;;;;;;;;21.90;45.60;;;;;;5158240;27;20438;-50
2022/02/22 07:12:27;;;;;;;;;;;21.90;46.00;;;;;;5157882;27;20386;-47
2022/02/22 07:14:54;;;;;;;;;;;21.90;46.40;;;;;;5157394;27;19948;-50
2022/02/22 07:17:21;;;;;;;;;;;21.90;46.70;;;;;;5157192;27;19923;-51
2022/02/22 07:19:49;;;;;;;;;;;21.90;46.90;;;;;;5153712;27;20401;-48
2022/02/22 07:22:16;;;;;;;;;;;21.90;47.10;;;;;;5136415;27;20371;-46
2022/02/22 07:24:43;;;;;;;;;;;22.00;47.30;;;;;;5136772;27;20000;-48
2022/02/22 07:27:09;;;;;;;;;;;22.00;47.50;;;;;;5136702;27;19981;-47
2022/02/22 07:29:38;;;;;;;;;;;22.00;47.70;;;;;;5136647;27;19923;-47
2022/02/22 07:32:05;;;;;;;;;;;22.00;47.90;;;;;;5136659;27;20378;-47
2022/02/22 07:34:32;;;;;;;;;;;22.00;48.00;;;;;;5140141;27;20348;-46
2022/02/22 07:36:59;;;;;;;;;;;22.00;48.20;;;;;;5156577;27;19923;-45
2022/02/22 07:39:26;;;;;;;;;;;22.00;48.30;;;;;;5136884;27;19930;-50
2022/02/22 07:41:54;;;;;;;;;;;22.00;49.00;;;;;;5136989;27;19959;-46
2022/02/22 07:44:21;;;;;;;;;;;22.00;48.50;;;;;;5136573;27;19977;-49
2022/02/22 07:46:48;;;;;;;;;;;22.10;48.60;;;;;;5136567;27;20370;-45
2022/02/22 07:49:15;;;;;;;;;;;22.10;48.80;;;;;;5136415;27;19924;-46
2022/02/22 07:51:43;;;;;;;;;;;22.10;48.90;;;;;;5156672;27;19927;-45
2022/02/22 07:54:10;;;;;;;;;;;22.10;48.90;;;;;;5122855;27;19927;-47
2022/02/22 07:56:38;;;;;;;;;;;22.10;49.00;;;;;;5136462;27;19976;-48
2022/02/22 07:59:05;;;;;;;;;;;22.10;49.20;;;;;;5135850;27;19962;-52
2022/02/22 08:01:32;;;;;;;;;;;22.10;49.30;;;;;;5136183;27;19930;-47
2022/02/22 08:03:58;;;;;;;;;;;22.10;49.40;;;;;;5136649;27;19955;-47
2022/02/22 08:06:26;;;;;;;;;;;22.10;49.20;;;;;;5152960;27;19923;-48
2022/02/22 08:08:53;;;;;;;;;;;22.20;49.70;;;;;;5155331;27;19930;-47
2022/02/22 08:11:20;;;;;;;;;;;22.20;49.70;;;;;;5156793;27;19923;-48
2022/02/22 08:13:49;;;;;;;;;;;22.20;49.70;;;;;;5155625;27;19929;-52
2022/02/22 08:16:16;;;;;;;;;;;22.20;49.70;;;;;;5157076;27;19923;-50
2022/02/22 08:18:44;;;;;;;;;;;22.20;49.60;;;;;;5155958;27;19926;-47
2022/02/22 08:21:11;;;;;;;;;;;22.30;49.20;;;;;;5154820;27;20018;-51
2022/02/22 08:23:38;;;;;;;;;;;22.30;48.90;;;;;;5156161;27;19923;-47
2022/02/22 08:26:05;;;;;;;;;;;22.30;48.70;;;;;;5138351;27;19950;-50
2022/02/22 08:28:32;;;;;;;;;;;22.30;48.50;;;;;;5155592;27;19966;-47
2022/02/22 08:31:00;;;;;;;;;;;22.40;48.50;;;;;;5156715;27;19923;-47
2022/02/22 08:33:27;;;;;;;;;;;22.40;48.50;;;;;;5156662;27;19923;-46
2022/02/22 08:35:56;;;;;;;;;;;22.40;48.50;;;;;;5155106;27;20010;-49
2022/02/22 08:38:23;;;;;;;;;;;22.40;48.50;;;;;;5155386;27;19923;-46
2022/02/22 08:40:50;;;;;;;;;;;22.40;48.40;;;;;;5155839;27;19923;-47
2022/02/22 08:43:17;;;;;;;;;;;22.40;48.40;;;;;;5155825;27;20386;-45
2022/02/22 08:45:45;;;;;;;;;;;22.40;48.30;;;;;;5155969;27;20509;-50
2022/02/22 08:48:14;;;;;;;;;;;22.40;48.30;;;;;;5156030;27;19957;-51
2022/02/22 08:50:42;;;;;;;;;;;22.40;48.20;;;;;;5154111;27;19923;-44
2022/02/22 08:53:10;;;;;;;;;;;22.40;48.60;;;;;;5155011;27;19923;-45
2022/02/22 08:55:38;;;;;;;;;;;22.40;48.20;;;;;;5155823;27;20033;-48
2022/02/22 08:58:06;;;;;;;;;;;22.40;48.10;;;;;;5155620;27;19976;-46
2022/02/22 09:00:36;;;;;;;;;;;22.40;48.10;;;;;;5155643;27;20356;-49
2022/02/22 09:03:03;;;;;;;;;;;22.50;48.10;;;;;;5156077;27;20363;-49
2022/02/22 09:05:32;;;;;;;;;;;22.50;48.00;;;;;;5154303;27;19929;-43
2022/02/22 09:08:04;;;;;;;;;;;22.50;48.00;;;;;;5155727;27;19923;-47
2022/02/22 09:10:31;;;;;;;;;;;22.50;47.90;;;;;;5154835;27;20010;-47
2022/02/22 09:12:58;;;;;;;;;;;22.50;47.80;;;;;;5155596;27;19923;-47
2022/02/22 09:15:28;;;;;;;;;;;22.50;47.80;;;;;;5155560;27;19923;-46
2022/02/22 09:17:55;;;;;;;;;;;22.50;47.70;;;;;;5155886;27;20272;-47
2022/02/22 09:20:23;;;;;;;;;;;22.50;47.60;;;;;;5153453;27;20442;-47
2022/02/22 09:22:51;;;;;;;;;;;22.50;47.60;;;;;;5155281;27;20343;-50
2022/02/22 09:25:20;;;;;;;;;;;22.50;47.50;;;;;;5154543;27;19959;-47
2022/02/22 09:27:48;;;;;;;;;;;22.50;47.40;;;;;;5154941;27;19970;-49
2022/02/22 09:30:17;;;;;;;;;;;22.50;47.40;;;;;;5136674;27;20406;-51
2022/02/22 09:32:49;;;;;;;;;;;22.50;47.30;;;;;;5155526;27;19945;-46
2022/02/22 09:35:18;;;;;;;;;;;22.50;47.30;;;;;;5155178;27;19950;-47
2022/02/22 09:37:46;;;;;;;;;;;22.50;47.20;;;;;;5134465;27;19979;-46
2022/02/22 09:40:14;;;;;;;;;;;22.50;47.10;;;;;;5148457;27;20303;-51
2022/02/22 09:42:42;;;;;;;;;;;22.50;47.10;;;;;;5154730;27;19923;-51
2022/02/22 09:45:13;;;;;;;;;;;22.50;47.00;;;;;;5155533;27;19970;-46
2022/02/22 09:47:41;;;;;;;;;;;22.50;47.00;;;;;;5155114;27;19927;-48
2022/02/22 09:50:10;;;;;;;;;;;22.50;46.90;;;;;;5154521;27;19930;-46
2022/02/22 09:52:38;;;;;;;;;;;22.50;46.80;;;;;;5153650;27;19923;-46
2022/02/22 09:55:06;;;;;;;;;;;22.50;46.80;;;;;;5154126;27;20010;-47
2022/02/22 09:57:34;;;;;;;;;;;22.50;46.70;;;;;;5154477;27;20017;-50
2022/02/22 10:00:02;;;;;;;;;;;22.50;46.70;;;;;;5155144;27;19923;-46
2022/02/22 10:02:37;;;;;;;;;;;22.50;46.60;;;;;;5154623;27;19923;-47
2022/02/22 10:05:14;;;;;;;;;;;22.50;46.60;;;;;;5154813;27;19927;-48
2022/02/22 10:07:49;;;;;;;;;;;22.50;46.50;;;;;;5154007;27;19930;-46
2022/02/22 10:10:18;;;;;;;;;;;22.50;46.40;;;;;;5154406;27;19923;-45
2022/02/22 10:12:51;;;;;;;;;;;22.50;46.40;;;;;;5154065;27;19982;-45
2022/02/22 10:15:19;;;;;;;;;;;22.60;46.40;;;;;;5136601;27;19976;-47
2022/02/22 10:17:48;;;;;;;;;;;22.60;46.30;;;;;;5136300;27;19922;-46
2022/02/22 10:20:15;;;;;;;;;;;22.60;46.30;;;;;;5135897;27;19976;-49
2022/02/22 10:22:46;;;;;;;;;;;22.60;46.30;;;;;;5153369;27;19923;-51
2022/02/22 10:25:13;;;;;;;;;;;22.60;46.20;;;;;;5153708;27;19927;-52
2022/02/22 10:27:42;;;;;;;;;;;22.60;46.80;;;;;;5154723;27;19923;-52
2022/02/22 10:30:29;;;;;;;;;;;22.60;46.20;;;;;;5154548;27;20382;-46
2022/02/22 10:32:56;;;;;;;;;;;22.60;46.10;;;;;;5153783;27;19977;-53
2022/02/22 10:35:27;;;;;;;;;;;22.70;46.10;;;;;;5153708;27;20213;-50
2022/02/22 10:37:54;;;;;;;;;;;22.70;46.10;;;;;;5157099;27;19923;-47
2022/02/22 10:40:29;;;;;;;;;;;22.70;46.10;;;;;;5157675;27;19923;-51
2022/02/22 10:42:56;;;;;;;;;;;22.60;46.10;;;;;;5158116;27;19923;-49
2022/02/22 10:45:26;;;;;;;;;;;22.70;46.10;;;;;;5158886;27;20011;-50
2022/02/22 10:47:55;;;;;;;;;;;22.70;46.10;;;;;;5157905;27;19977;-48
2022/02/22 10:50:24;;;;;;;;;;;22.70;46.00;;;;;;5158394;27;19930;-46
2022/02/22 10:52:52;;;;;;;;;;;22.70;46.00;;;;;;5157019;27;20343;-51
2022/02/22 10:55:19;;;;;;;;;;;22.60;45.90;;;;;;5157319;27;19930;-52
2022/02/22 10:57:47;;;;;;;;;;;22.60;46.00;;;;;;5158570;27;19930;-52
2022/02/22 11:00:14;;;;;;;;;;;22.60;46.00;;;;;;5158202;27;19950;-49
2022/02/22 11:02:45;;;;;;;;;;;22.70;46.00;;;;;;5158753;27;19930;-50
2022/02/22 11:05:33;;;;;;;;;;;22.70;46.00;;;;;;5158863;27;19929;-50
2022/02/22 11:08:01;;;;;;;;;;;22.70;45.90;;;;;;5139067;27;19923;-51
2022/02/22 11:10:29;;;;;;;;;;;22.70;45.90;;;;;;5156944;27;19923;-49
2022/02/22 11:12:59;;;;;;;;;;;22.70;45.90;;;;;;5158510;27;19927;-50
2022/02/22 11:15:45;;;;;;;;;;;22.70;45.80;;;;;;5158143;27;19927;-51
2022/02/22 11:18:17;;;;;;;;;;;22.70;45.80;;;;;;5158168;27;20018;-50
2022/02/22 11:20:44;;;;;;;;;;;22.70;45.80;;;;;;5158220;27;19927;-46
2022/02/22 11:23:12;;;;;;;;;;;22.70;45.70;;;;;;5157075;27;19988;-47
2022/02/22 11:25:40;;;;;;;;;;;22.70;45.70;;;;;;5157125;27;20398;-47
2022/02/22 11:28:10;;;;;;;;;;;22.80;45.70;;;;;;5157883;27;19923;-46
2022/02/22 11:30:38;;;;;;;;;;;22.80;45.60;;;;;;5158204;27;19923;-50
2022/02/22 11:33:08;;;;;;;;;;;22.80;45.60;;;;;;5158434;27;20022;-51
2022/02/22 11:35:49;;;;;;;;;;;22.80;45.50;;;;;;5158140;27;19923;-48
2022/02/22 11:38:18;;;;;;;;;;;22.80;45.50;;;;;;5156911;27;19923;-46
2022/02/22 11:40:48;;;;;;;;;;;22.80;45.40;;;;;;5157233;27;19931;-52
2022/02/22 11:43:17;;;;;;;;;;;22.80;45.40;;;;;;5157650;27;19929;-47
2022/02/22 11:45:46;;;;;;;;;;;22.80;45.40;;;;;;5157449;27;19924;-48
2022/02/22 11:48:20;;;;;;;;;;;22.80;45.30;;;;;;5156377;27;19927;-48
2022/02/22 11:50:49;;;;;;;;;;;22.90;45.40;;;;;;5157466;27;19927;-47
2022/02/22 11:53:22;;;;;;;;;;;22.90;45.30;;;;;;5156449;27;19976;-48
2022/02/22 11:55:49;;;;;;;;;;;22.90;45.30;;;;;;5156613;27;19923;-46
2022/02/22 11:58:22;;;;;;;;;;;22.90;45.30;;;;;;5157785;27;20370;-46
2022/02/22 12:00:51;;;;;;;;;;;22.90;45.30;;;;;;5157662;27;19923;-47
2022/02/22 12:03:19;;;;;;;;;;;22.90;45.30;;;;;;5157479;27;20429;-48
2022/02/22 12:05:52;;;;;;;;;;;22.90;45.30;;;;;;5157551;27;19927;-47
2022/02/22 12:08:20;;;;;;;;;;;22.90;45.30;;;;;;5155983;27;19923;-45
2022/02/22 12:10:47;;;;;;;;;;;22.90;45.20;;;;;;5156372;27;19930;-47
2022/02/22 12:13:19;;;;;;;;;;;22.90;45.20;;;;;;5156939;27;19927;-47
2022/02/22 12:15:46;;;;;;;;;;;22.90;45.20;;;;;;5157017;27;19966;-48
2022/02/22 12:18:26;;;;;;;;;;;22.90;45.10;;;;;;5157018;27;19922;-49
2022/02/22 12:20:54;;;;;;;;;;;22.90;45.10;;;;;;5156885;27;19972;-50
2022/02/22 12:23:23;;;;;;;;;;;22.90;45.10;;;;;;5155558;27;19923;-48
2022/02/22 12:25:53;;;;;;;;;;;23.00;45.10;;;;;;5155911;27;19927;-46
2022/02/22 12:28:21;;;;;;;;;;;23.00;45.10;;;;;;5157000;27;19927;-48
2022/02/22 12:30:49;;;;;;;;;;;23.00;45.10;;;;;;5157008;27;20006;-47
2022/02/22 12:33:17;;;;;;;;;;;23.00;45.10;;;;;;5156983;27;19930;-46
2022/02/22 12:35:45;;;;;;;;;;;23.00;45.10;;;;;;5156904;27;19988;-49
2022/02/22 12:38:15;;;;;;;;;;;23.00;45.10;;;;;;5155719;27;19930;-47
2022/02/22 12:40:42;;;;;;;;;;;23.00;45.10;;;;;;5156075;27;19958;-49
2022/02/22 12:43:29;;;;;;;;;;;23.00;45.10;;;;;;5157000;27;20263;-47
2022/02/22 12:45:56;;;;;;;;;;;23.00;45.00;;;;;;5156691;27;19968;-52
2022/02/22 12:48:24;;;;;;;;;;;23.00;45.10;;;;;;5156568;27;19952;-51
2022/02/22 12:50:52;;;;;;;;;;;23.00;45.10;;;;;;5157149;27;19923;-45
2022/02/22 12:53:26;;;;;;;;;;;23.00;45.10;;;;;;5154845;27;19923;-46
2022/02/22 12:55:57;;;;;;;;;;;23.00;45.10;;;;;;5155706;27;19955;-46
2022/02/22 12:58:34;;;;;;;;;;;23.00;45.10;;;;;;5156548;27;20022;-48
2022/02/22 13:01:21;;;;;;;;;;;23.00;45.10;;;;;;5156888;27;19962;-47
2022/02/22 13:03:50;;;;;;;;;;;23.00;45.10;;;;;;5156029;27;19923;-46
2022/02/22 13:06:17;;;;;;;;;;;23.00;45.10;;;;;;5156248;27;19923;-44
2022/02/22 13:08:45;;;;;;;;;;;23.00;45.10;;;;;;5154580;27;20042;-48
2022/02/22 13:11:12;;;;;;;;;;;23.00;45.10;;;;;;5155140;27;19934;-46
2022/02/22 13:13:40;;;;;;;;;;;23.00;45.10;;;;;;5156107;27;20338;-48
2022/02/22 13:16:11;;;;;;;;;;;23.00;45.10;;;;;;5156121;27;19927;-48
2022/02/22 13:18:50;;;;;;;;;;;23.00;45.10;;;;;;5155571;27;19971;-47
2022/02/22 13:21:17;;;;;;;;;;;23.00;45.00;;;;;;5155914;27;19945;-46
2022/02/22 13:23:44;;;;;;;;;;;23.00;45.00;;;;;;5154349;27;19972;-47
2022/02/22 13:26:11;;;;;;;;;;;23.00;45.00;;;;;;5155345;27;20258;-50
2022/02/22 13:28:40;;;;;;;;;;;23.00;45.00;;;;;;5155871;27;19971;-48
2022/02/22 13:31:14;;;;;;;;;;;23.00;45.00;;;;;;5155965;27;19923;-50
2022/02/22 13:33:43;;;;;;;;;;;23.00;45.00;;;;;;5155843;27;19971;-49
2022/02/22 13:36:16;;;;;;;;;;;23.00;45.00;;;;;;5155846;27;19958;-49
2022/02/22 13:38:44;;;;;;;;;;;23.00;45.00;;;;;;5135967;27;19923;-48
2022/02/22 13:41:12;;;;;;;;;;;23.00;45.00;;;;;;5155724;27;19923;-48
2022/02/22 13:43:39;;;;;;;;;;;23.00;45.00;;;;;;5155147;27;19966;-48
2022/02/22 13:46:08;;;;;;;;;;;23.00;45.00;;;;;;5156028;27;19923;-51
2022/02/22 13:48:35;;;;;;;;;;;23.00;44.90;;;;;;5155284;27;19934;-49
2022/02/22 13:51:08;;;;;;;;;;;23.00;45.00;;;;;;5155419;27;19962;-48
2022/02/22 13:53:36;;;;;;;;;;;23.00;45.00;;;;;;5154369;27;20347;-49
2022/02/22 13:56:05;;;;;;;;;;;23.00;45.00;;;;;;5155543;27;19987;-50
2022/02/22 13:58:33;;;;;;;;;;;23.00;45.10;;;;;;5136517;27;19923;-45
2022/02/22 14:01:01;;;;;;;;;;;23.00;45.10;;;;;;5155534;27;20005;-51
2022/02/22 14:03:28;;;;;;;;;;;23.00;45.10;;;;;;5155196;27;19923;-49
2022/02/22 14:05:57;;;;;;;;;;;23.00;45.10;;;;;;5155165;27;19923;-49
2022/02/22 14:08:24;;;;;;;;;;;23.00;45.10;;;;;;5154196;27;19923;-51
2022/02/22 14:10:52;;;;;;;;;;;23.00;45.10;;;;;;5155873;27;20357;-49
2022/02/22 14:13:20;;;;;;;;;;;23.00;45.10;;;;;;5158599;27;19959;-50
2022/02/22 14:16:07;;;;;;;;;;;22.90;45.00;;;;;;5159208;27;20415;-50
2022/02/22 14:18:34;;;;;;;;;;;22.90;45.10;;;;;;5159120;27;19967;-47
2022/02/22 14:21:01;;;;;;;;;;;23.00;45.10;;;;;;5159108;27;19978;-46
2022/02/22 14:23:27;;;;;;;;;;;23.00;45.10;;;;;;5158625;27;19965;-49